createdAt,value
2018-05-11T00:00:55.474Z,88.50
2018-05-11T00:01:55.433Z,88.40
2018-05-11T00:02:55.423Z,87.93
2018-05-11T00:03:55.400Z,87.64
2018-05-11T00:04:55.378Z,88.21
2018-05-11T00:05:55.364Z,88.12
2018-05-11T00:06:56.911Z,87.83
2018-05-11T00:07:55.321Z,87.54
2018-05-11T00:08:57.903Z,87.26
2018-05-11T00:09:55.285Z,87.35
2018-05-11T00:10:55.262Z,87.26
2018-05-11T00:11:55.246Z,87.26
2018-05-11T00:12:55.227Z,87.45
2018-05-11T00:13:56.903Z,88.21
2018-05-11T00:14:55.186Z,87.93
2018-05-11T00:15:55.171Z,88.21
2018-05-11T00:16:55.149Z,87.93
2018-05-11T00:17:55.132Z,88.02
2018-05-11T00:18:55.115Z,87.79
2018-05-11T00:19:55.096Z,88.31
2018-05-11T00:20:55.074Z,87.64
2018-05-11T00:21:55.060Z,87.93
2018-05-11T00:22:55.068Z,88.12
2018-05-11T00:23:55.021Z,87.83
2018-05-11T00:24:54.996Z,87.54
2018-05-11T00:25:56.906Z,87.26
2018-05-11T00:26:54.960Z,87.16
2018-05-11T00:27:54.943Z,87.64
2018-05-11T00:28:54.921Z,87.45
2018-05-11T00:29:54.907Z,86.78
2018-05-11T00:30:57.409Z,87.35
2018-05-11T00:31:54.865Z,87.16
2018-05-11T00:32:54.848Z,87.45
2018-05-11T00:33:54.827Z,87.26
2018-05-11T00:34:57.411Z,87.26
2018-05-11T00:35:54.788Z,87.07
2018-05-11T00:36:57.410Z,87.45
2018-05-11T00:37:54.751Z,86.78
2018-05-11T00:38:54.731Z,86.59
2018-05-11T00:39:54.712Z,86.74
2018-05-11T00:40:54.692Z,86.78
2018-05-11T00:41:54.671Z,87.35
2018-05-11T00:42:54.654Z,86.98
2018-05-11T00:43:54.641Z,86.98
2018-05-11T00:44:54.617Z,86.55
2018-05-11T00:45:54.598Z,87.02
2018-05-11T00:46:54.578Z,86.78
2018-05-11T00:47:54.561Z,86.74
2018-05-11T00:48:54.537Z,86.55
2018-05-11T00:49:54.518Z,86.55
2018-05-11T00:50:54.502Z,86.74
2018-05-11T00:51:54.485Z,86.93
2018-05-11T00:52:54.464Z,87.60
2018-05-11T00:53:54.444Z,87.50
2018-05-11T00:54:54.428Z,87.02
2018-05-11T00:55:54.405Z,87.12
2018-05-11T00:56:54.389Z,87.02
2018-05-11T00:57:56.919Z,87.12
2018-05-11T00:58:54.350Z,87.40
2018-05-11T00:59:54.340Z,87.31
2018-05-11T01:00:56.918Z,87.50
2018-05-11T01:01:54.291Z,87.40
2018-05-11T01:02:54.276Z,87.40
2018-05-11T01:03:54.251Z,87.31
2018-05-11T01:04:54.230Z,87.12
2018-05-11T01:05:54.211Z,86.55
2018-05-11T01:06:54.200Z,87.40
2018-05-11T01:07:54.178Z,87.31
2018-05-11T01:08:54.154Z,87.50
2018-05-11T01:09:54.137Z,87.31
2018-05-11T01:10:54.116Z,88.17
2018-05-11T01:11:54.097Z,87.98
2018-05-11T01:12:54.077Z,87.98
2018-05-11T01:13:54.059Z,88.17
2018-05-11T01:14:54.039Z,87.98
2018-05-11T01:15:54.020Z,88.36
2018-05-11T01:16:54.069Z,88.64
2018-05-11T01:17:53.980Z,89.12
2018-05-11T01:18:53.963Z,89.50
2018-05-11T01:19:53.943Z,89.31
2018-05-11T01:20:53.934Z,89.31
2018-05-11T01:21:53.902Z,90.08
2018-05-11T01:22:53.886Z,90.03
2018-05-11T01:23:53.868Z,89.84
2018-05-11T01:24:53.846Z,89.84
2018-05-11T01:25:54.069Z,89.94
2018-05-11T01:26:53.812Z,89.65
2018-05-11T01:27:53.786Z,89.75
2018-05-11T01:28:53.766Z,89.94
2018-05-11T01:29:53.766Z,90.03
2018-05-11T01:30:53.728Z,90.03
2018-05-11T01:31:53.710Z,89.65
2018-05-11T01:32:53.694Z,89.65
2018-05-11T01:33:53.670Z,89.36
2018-05-11T01:34:53.655Z,89.17
2018-05-11T01:35:53.631Z,89.31
2018-05-11T01:36:53.614Z,89.69
2018-05-11T01:37:53.593Z,89.22
2018-05-11T01:38:53.575Z,89.40
2018-05-11T01:39:53.638Z,89.60
2018-05-11T01:40:53.537Z,89.31
2018-05-11T01:41:53.517Z,89.03
2018-05-11T01:42:53.500Z,88.84
2018-05-11T01:43:53.473Z,88.55
2018-05-11T01:44:53.458Z,88.93
2018-05-11T01:45:53.444Z,88.55
2018-05-11T01:46:53.419Z,88.45
2018-05-11T01:47:53.399Z,88.64
2018-05-11T01:48:53.423Z,88.74
2018-05-11T01:49:53.359Z,88.26
2018-05-11T01:50:53.342Z,88.89
2018-05-11T01:51:53.323Z,88.60
2018-05-11T01:52:53.304Z,88.55
2018-05-11T01:53:53.282Z,88.60
2018-05-11T01:54:53.260Z,88.79
2018-05-11T01:55:53.246Z,88.89
2018-05-11T01:56:54.057Z,89.03
2018-05-11T01:57:53.205Z,88.89
2018-05-11T01:58:53.183Z,88.60
2018-05-11T01:59:53.163Z,88.79
2018-05-11T02:00:53.144Z,88.84
2018-05-11T02:01:53.125Z,88.70
2018-05-11T02:02:53.106Z,88.70
2018-05-11T02:03:53.092Z,88.51
2018-05-11T02:04:53.075Z,88.26
2018-05-11T02:05:54.935Z,88.22
2018-05-11T02:06:53.030Z,87.84
2018-05-11T02:07:53.013Z,87.84
2018-05-11T02:08:52.988Z,87.93
2018-05-11T02:09:52.971Z,88.31
2018-05-11T02:10:52.953Z,88.12
2018-05-11T02:11:52.933Z,88.31
2018-05-11T02:12:52.911Z,88.22
2018-05-11T02:13:52.892Z,88.51
2018-05-11T02:14:52.880Z,88.31
2018-05-11T02:15:52.851Z,88.12
2018-05-11T02:16:52.835Z,88.31
2018-05-11T02:17:52.815Z,87.93
2018-05-11T02:18:52.797Z,88.12
2018-05-11T02:19:52.775Z,87.84
2018-05-11T02:20:52.757Z,87.84
2018-05-11T02:21:52.739Z,88.89
2018-05-11T02:22:52.714Z,89.26
2018-05-11T02:23:52.698Z,89.32
2018-05-11T02:24:52.679Z,89.41
2018-05-11T02:25:52.725Z,89.22
2018-05-11T02:26:52.640Z,89.79
2018-05-11T02:27:52.621Z,89.51
2018-05-11T02:28:52.595Z,90.08
2018-05-11T02:29:52.582Z,89.79
2018-05-11T02:30:52.567Z,90.08
2018-05-11T02:31:52.539Z,89.98
2018-05-11T02:32:52.517Z,89.79
2018-05-11T02:33:52.498Z,89.89
2018-05-11T02:34:52.497Z,89.61
2018-05-11T02:35:52.466Z,89.22
2018-05-11T02:36:53.950Z,89.03
2018-05-11T02:37:52.421Z,89.51
2018-05-11T02:38:52.401Z,89.03
2018-05-11T02:39:52.387Z,89.17
2018-05-11T02:40:52.360Z,89.13
2018-05-11T02:41:52.341Z,89.36
2018-05-11T02:42:52.321Z,89.03
2018-05-11T02:43:53.949Z,89.22
2018-05-11T02:44:52.284Z,89.22
2018-05-11T02:45:52.263Z,89.22
2018-05-11T02:46:52.243Z,89.07
2018-05-11T02:47:52.226Z,88.93
2018-05-11T02:48:52.202Z,89.22
2018-05-11T02:49:52.188Z,89.46
2018-05-11T02:50:52.164Z,89.41
2018-05-11T02:51:52.145Z,89.36
2018-05-11T02:52:52.126Z,89.13
2018-05-11T02:53:52.104Z,89.13
2018-05-11T02:54:52.088Z,89.22
2018-05-11T02:55:52.111Z,88.84
2018-05-11T02:56:52.056Z,89.03
2018-05-11T02:57:52.077Z,89.13
2018-05-11T02:58:52.009Z,89.46
2018-05-11T02:59:51.990Z,89.22
2018-05-11T03:00:51.964Z,88.93
2018-05-11T03:01:51.950Z,89.32
2018-05-11T03:02:51.928Z,89.22
2018-05-11T03:03:53.446Z,90.12
2018-05-11T03:04:51.891Z,89.32
2018-05-11T03:05:51.876Z,89.17
2018-05-11T03:06:51.857Z,88.89
2018-05-11T03:07:51.850Z,89.26
2018-05-11T03:08:51.810Z,89.26
2018-05-11T03:09:51.830Z,89.55
2018-05-11T03:10:51.772Z,89.36
2018-05-11T03:11:51.759Z,89.26
2018-05-11T03:12:51.731Z,89.36
2018-05-11T03:13:51.709Z,89.46
2018-05-11T03:14:51.694Z,89.26
2018-05-11T03:15:51.669Z,89.46
2018-05-11T03:16:51.648Z,89.46
2018-05-11T03:17:51.632Z,89.36
2018-05-11T03:18:51.615Z,89.36
2018-05-11T03:19:51.593Z,89.46
2018-05-11T03:20:51.575Z,89.26
2018-05-11T03:21:51.552Z,89.46
2018-05-11T03:22:51.537Z,89.36
2018-05-11T03:23:51.516Z,89.36
2018-05-11T03:24:51.492Z,88.79
2018-05-11T03:25:51.475Z,88.98
2018-05-11T03:26:51.453Z,89.17
2018-05-11T03:27:51.434Z,89.36
2018-05-11T03:28:52.098Z,89.36
2018-05-11T03:29:51.392Z,88.89
2018-05-11T03:30:51.378Z,89.46
2018-05-11T03:31:51.360Z,89.26
2018-05-11T03:32:51.333Z,89.26
2018-05-11T03:33:51.318Z,89.46
2018-05-11T03:34:51.296Z,89.17
2018-05-11T03:35:51.275Z,89.07
2018-05-11T03:36:51.253Z,88.98
2018-05-11T03:37:51.236Z,89.55
2018-05-11T03:38:51.218Z,89.26
2018-05-11T03:39:51.207Z,89.46
2018-05-11T03:40:53.960Z,89.75
2018-05-11T03:41:51.158Z,89.46
2018-05-11T03:42:51.143Z,89.55
2018-05-11T03:43:51.124Z,89.65
2018-05-11T03:44:51.101Z,89.36
2018-05-11T03:45:51.092Z,89.65
2018-05-11T03:46:51.058Z,89.36
2018-05-11T03:47:51.039Z,90.03
2018-05-11T03:48:51.017Z,89.75
2018-05-11T03:49:51.008Z,90.22
2018-05-11T03:50:50.979Z,90.03
2018-05-11T03:51:50.959Z,89.94
2018-05-11T03:52:50.961Z,89.75
2018-05-11T03:53:50.940Z,89.94
2018-05-11T03:54:50.901Z,89.84
2018-05-11T03:55:50.878Z,89.84
2018-05-11T03:56:50.859Z,89.84
2018-05-11T03:57:50.838Z,89.84
2018-05-11T03:58:50.819Z,89.94
2018-05-11T03:59:50.825Z,89.65
2018-05-11T04:00:50.784Z,89.94
2018-05-11T04:01:50.763Z,90.12
2018-05-11T04:02:50.741Z,90.03
2018-05-11T04:03:50.726Z,89.84
2018-05-11T04:04:50.702Z,89.75
2018-05-11T04:05:50.684Z,89.46
2018-05-11T04:06:50.662Z,89.75
2018-05-11T04:07:50.643Z,90.31
2018-05-11T04:08:50.626Z,89.94
2018-05-11T04:09:50.606Z,89.94
2018-05-11T04:10:50.589Z,90.41
2018-05-11T04:11:50.566Z,90.12
2018-05-11T04:12:50.551Z,90.41
2018-05-11T04:13:50.527Z,90.60
2018-05-11T04:14:50.505Z,90.45
2018-05-11T04:15:50.486Z,90.31
2018-05-11T04:16:50.465Z,90.45
2018-05-11T04:17:50.449Z,90.45
2018-05-11T04:18:50.428Z,90.55
2018-05-11T04:19:50.411Z,90.55
2018-05-11T04:20:50.403Z,90.74
2018-05-11T04:21:50.371Z,90.45
2018-05-11T04:22:52.970Z,90.84
2018-05-11T04:23:50.330Z,90.84
2018-05-11T04:24:50.352Z,91.03
2018-05-11T04:25:50.295Z,91.22
2018-05-11T04:26:50.275Z,91.36
2018-05-11T04:27:50.272Z,91.94
2018-05-11T04:28:50.234Z,91.98
2018-05-11T04:29:50.408Z,91.84
2018-05-11T04:30:50.192Z,91.60
2018-05-11T04:31:50.175Z,91.98
2018-05-11T04:32:50.151Z,91.98
2018-05-11T04:33:50.138Z,92.08
2018-05-11T04:34:50.111Z,91.41
2018-05-11T04:35:50.093Z,91.50
2018-05-11T04:36:50.082Z,91.22
2018-05-11T04:37:50.054Z,91.13
2018-05-11T04:38:50.036Z,91.22
2018-05-11T04:39:50.016Z,91.41
2018-05-11T04:40:49.997Z,90.93
2018-05-11T04:41:49.978Z,90.64
2018-05-11T04:42:49.960Z,91.13
2018-05-11T04:43:49.938Z,90.36
2018-05-11T04:44:49.923Z,90.50
2018-05-11T04:45:49.896Z,90.31
2018-05-11T04:46:49.883Z,90.31
2018-05-11T04:47:49.863Z,90.22
2018-05-11T04:48:49.845Z,89.54
2018-05-11T04:49:49.821Z,89.93
2018-05-11T04:50:49.803Z,89.93
2018-05-11T04:51:49.789Z,89.36
2018-05-11T04:52:49.763Z,89.07
2018-05-11T04:53:49.745Z,89.26
2018-05-11T04:54:49.726Z,88.98
2018-05-11T04:55:49.712Z,89.45
2018-05-11T04:56:49.686Z,89.45
2018-05-11T04:57:49.670Z,89.36
2018-05-11T04:58:49.647Z,89.83
2018-05-11T04:59:49.632Z,89.54
2018-05-11T05:00:50.391Z,89.45
2018-05-11T05:01:49.591Z,89.36
2018-05-11T05:02:51.517Z,88.88
2018-05-11T05:03:49.554Z,89.36
2018-05-11T05:04:49.539Z,89.45
2018-05-11T05:05:49.515Z,89.54
2018-05-11T05:06:49.497Z,89.17
2018-05-11T05:07:49.503Z,89.36
2018-05-11T05:08:49.458Z,89.17
2018-05-11T05:09:49.482Z,89.07
2018-05-11T05:10:49.422Z,89.07
2018-05-11T05:11:49.400Z,89.54
2018-05-11T05:12:49.380Z,89.64
2018-05-11T05:13:49.361Z,89.54
2018-05-11T05:14:49.344Z,89.07
2018-05-11T05:15:49.988Z,89.07
2018-05-11T05:16:49.306Z,89.07
2018-05-11T05:17:49.286Z,89.17
2018-05-11T05:18:51.023Z,89.07
2018-05-11T05:19:49.248Z,89.17
2018-05-11T05:20:49.233Z,89.45
2018-05-11T05:21:49.211Z,89.07
2018-05-11T05:22:49.383Z,89.54
2018-05-11T05:23:49.179Z,89.54
2018-05-11T05:24:49.153Z,89.02
2018-05-11T05:25:49.134Z,88.59
2018-05-11T05:26:49.122Z,88.73
2018-05-11T05:27:49.098Z,89.12
2018-05-11T05:28:49.138Z,88.88
2018-05-11T05:29:49.058Z,88.98
2018-05-11T05:30:49.042Z,88.64
2018-05-11T05:31:49.030Z,88.73
2018-05-11T05:32:49.000Z,88.73
2018-05-11T05:33:48.984Z,88.83
2018-05-11T05:34:48.964Z,88.64
2018-05-11T05:35:48.953Z,89.40
2018-05-11T05:36:48.925Z,89.59
2018-05-11T05:37:48.912Z,89.40
2018-05-11T05:38:48.888Z,89.50
2018-05-11T05:39:48.874Z,89.21
2018-05-11T05:40:48.849Z,89.12
2018-05-11T05:41:48.836Z,89.12
2018-05-11T05:42:48.811Z,89.12
2018-05-11T05:43:48.802Z,89.12
2018-05-11T05:44:48.778Z,89.40
2018-05-11T05:45:48.803Z,89.21
2018-05-11T05:46:48.743Z,89.50
2018-05-11T05:47:48.749Z,89.40
2018-05-11T05:48:48.714Z,89.59
2018-05-11T05:49:48.699Z,89.40
2018-05-11T05:50:48.676Z,89.25
2018-05-11T05:51:48.647Z,89.12
2018-05-11T05:52:48.626Z,88.92
2018-05-11T05:53:48.605Z,88.78
2018-05-11T05:54:48.592Z,88.83
2018-05-11T05:55:48.591Z,89.35
2018-05-11T05:56:48.559Z,88.87
2018-05-11T05:57:48.533Z,89.35
2018-05-11T05:58:49.556Z,89.25
2018-05-11T05:59:48.565Z,89.45
2018-05-11T06:00:48.480Z,89.16
2018-05-11T06:01:48.461Z,89.35
2018-05-11T06:02:48.449Z,89.45
2018-05-11T06:03:48.426Z,89.25
2018-05-11T06:04:48.405Z,89.06
2018-05-11T06:05:48.384Z,88.59
2018-05-11T06:06:48.364Z,88.97
2018-05-11T06:07:48.346Z,88.78
2018-05-11T06:08:48.335Z,88.59
2018-05-11T06:09:48.309Z,88.87
2018-05-11T06:10:48.365Z,88.68
2018-05-11T06:11:48.275Z,88.49
2018-05-11T06:12:48.260Z,88.11
2018-05-11T06:13:48.236Z,87.92
2018-05-11T06:14:48.221Z,87.92
2018-05-11T06:15:48.207Z,87.92
2018-05-11T06:16:48.184Z,88.20
2018-05-11T06:17:48.236Z,88.40
2018-05-11T06:18:48.195Z,88.20
2018-05-11T06:19:48.127Z,87.92
2018-05-11T06:20:48.129Z,88.11
2018-05-11T06:21:48.105Z,88.30
2018-05-11T06:22:48.121Z,88.01
2018-05-11T06:23:48.089Z,87.92
2018-05-11T06:24:48.157Z,88.15
2018-05-11T06:25:48.016Z,87.54
2018-05-11T06:26:47.999Z,87.68
2018-05-11T06:27:48.030Z,87.20
2018-05-11T06:28:47.977Z,86.82
2018-05-11T06:29:47.942Z,86.72
2018-05-11T06:30:47.931Z,86.72
2018-05-11T06:31:47.988Z,86.53
2018-05-11T06:32:47.941Z,87.39
2018-05-11T06:33:47.905Z,86.72
2018-05-11T06:34:47.894Z,86.43
2018-05-11T06:35:47.830Z,86.53
2018-05-11T06:36:47.813Z,86.91
2018-05-11T06:37:47.853Z,86.72
2018-05-11T06:38:47.776Z,86.72
2018-05-11T06:39:48.548Z,86.63
2018-05-11T06:40:47.803Z,86.72
2018-05-11T06:41:47.745Z,85.86
2018-05-11T06:42:47.736Z,85.48
2018-05-11T06:43:47.692Z,86.24
2018-05-11T06:44:47.669Z,86.34
2018-05-11T06:45:47.650Z,86.24
2018-05-11T06:46:47.631Z,87.10
2018-05-11T06:47:47.616Z,87.01
2018-05-11T06:48:47.701Z,86.15
2018-05-11T06:49:47.573Z,85.86
2018-05-11T06:50:47.558Z,85.96
2018-05-11T06:51:48.517Z,85.86
2018-05-11T06:52:48.144Z,86.15
2018-05-11T06:53:47.567Z,85.10
2018-05-11T06:54:47.485Z,85.67
2018-05-11T06:55:47.544Z,85.48
2018-05-11T06:56:47.448Z,85.77
2018-05-11T06:57:47.429Z,85.67
2018-05-11T06:58:47.415Z,85.67
2018-05-11T06:59:47.401Z,85.96
2018-05-11T07:00:47.377Z,85.10
2018-05-11T07:01:47.356Z,85.77
2018-05-11T07:02:47.340Z,85.19
2018-05-11T07:03:47.330Z,85.00
2018-05-11T07:04:47.302Z,85.19
2018-05-11T07:05:47.292Z,85.38
2018-05-11T07:06:47.267Z,85.10
2018-05-11T07:07:47.297Z,85.71
2018-05-11T07:08:47.230Z,84.66
2018-05-11T07:09:47.213Z,84.66
2018-05-11T07:10:47.192Z,84.95
2018-05-11T07:11:47.204Z,83.99
2018-05-11T07:12:50.015Z,83.99
2018-05-11T07:13:47.140Z,84.66
2018-05-11T07:14:47.119Z,84.28
2018-05-11T07:15:47.108Z,84.09
2018-05-11T07:16:47.086Z,84.05
2018-05-11T07:17:47.066Z,84.28
2018-05-11T07:18:47.050Z,83.18
2018-05-11T07:19:47.032Z,83.13
2018-05-11T07:20:47.012Z,83.04
2018-05-11T07:21:47.000Z,83.70
2018-05-11T07:22:46.976Z,82.65
2018-05-11T07:23:46.961Z,82.28
2018-05-11T07:24:46.939Z,82.46
2018-05-11T07:25:46.954Z,83.33
2018-05-11T07:26:46.905Z,83.70
2018-05-11T07:27:46.889Z,82.28
2018-05-11T07:28:46.880Z,82.37
2018-05-11T07:29:46.853Z,82.75
2018-05-11T07:30:46.835Z,83.23
2018-05-11T07:31:46.820Z,82.65
2018-05-11T07:32:46.799Z,82.46
2018-05-11T07:33:46.801Z,81.99
2018-05-11T07:34:46.766Z,82.75
2018-05-11T07:35:46.747Z,82.65
2018-05-11T07:36:46.730Z,81.79
2018-05-11T07:37:46.708Z,81.22
2018-05-11T07:38:46.722Z,81.41
2018-05-11T07:39:46.697Z,80.74
2018-05-11T07:40:46.696Z,80.65
2018-05-11T07:41:46.658Z,81.22
2018-05-11T07:42:47.529Z,82.37
2018-05-11T07:43:46.674Z,82.08
2018-05-11T07:44:46.667Z,81.03
2018-05-11T07:45:46.564Z,81.89
2018-05-11T07:46:46.619Z,81.60
2018-05-11T07:47:46.570Z,81.79
2018-05-11T07:48:46.517Z,82.84
2018-05-11T07:49:46.504Z,81.22
2018-05-11T07:50:46.548Z,80.55
2018-05-11T07:51:48.107Z,80.84
2018-05-11T07:52:48.234Z,80.59
2018-05-11T07:53:46.459Z,80.74
2018-05-11T07:54:46.449Z,81.07
2018-05-11T07:55:46.405Z,81.22
2018-05-11T07:56:46.392Z,81.36
2018-05-11T07:57:46.368Z,80.59
2018-05-11T07:58:46.402Z,80.79
2018-05-11T07:59:46.355Z,80.98
2018-05-11T08:00:47.086Z,81.55
2018-05-11T08:01:46.339Z,80.79
2018-05-11T08:02:46.334Z,80.69
2018-05-11T08:03:46.248Z,81.45
2018-05-11T08:04:46.244Z,80.98
2018-05-11T08:05:46.270Z,80.30
2018-05-11T08:06:46.269Z,80.30
2018-05-11T08:07:46.179Z,80.11
2018-05-11T08:08:48.093Z,79.06
2018-05-11T08:09:46.211Z,80.02
2018-05-11T08:10:46.173Z,80.11
2018-05-11T08:11:46.177Z,79.16
2018-05-11T08:12:46.145Z,79.06
2018-05-11T08:13:46.099Z,79.06
2018-05-11T08:14:46.104Z,79.25
2018-05-11T08:15:46.127Z,79.54
2018-05-11T08:16:46.552Z,79.73
2018-05-11T08:17:46.050Z,80.59
2018-05-11T08:18:46.023Z,79.93
2018-05-11T08:19:45.966Z,79.93
2018-05-11T08:20:46.020Z,81.07
2018-05-11T08:21:46.020Z,81.36
2018-05-11T08:22:45.961Z,80.30
2018-05-11T08:23:45.896Z,80.11
2018-05-11T08:24:45.934Z,78.11
2018-05-11T08:25:45.862Z,78.20
2018-05-11T08:26:45.943Z,77.25
2018-05-11T08:27:45.831Z,76.52
2018-05-11T08:28:45.817Z,76.10
2018-05-11T08:29:45.842Z,76.20
2018-05-11T08:30:45.844Z,76.00
2018-05-11T08:31:47.584Z,76.86
2018-05-11T08:32:45.747Z,77.63
2018-05-11T08:33:45.757Z,78.11
2018-05-11T08:34:45.714Z,79.54
2018-05-11T08:35:45.763Z,79.49
2018-05-11T08:36:45.720Z,78.34
2018-05-11T08:37:45.679Z,77.57
2018-05-11T08:38:45.640Z,77.28
2018-05-11T08:39:45.634Z,76.23
2018-05-11T08:40:45.628Z,75.95
2018-05-11T08:41:45.593Z,76.52
2018-05-11T08:42:45.634Z,76.00
2018-05-11T08:43:45.596Z,77.82
2018-05-11T08:44:45.537Z,78.24
2018-05-11T08:45:45.526Z,79.87
2018-05-11T08:46:45.511Z,78.34
2018-05-11T08:47:45.529Z,77.38
2018-05-11T08:48:45.493Z,77.72
2018-05-11T08:49:45.470Z,77.15
2018-05-11T08:50:45.466Z,77.25
2018-05-11T08:51:45.433Z,77.72
2018-05-11T08:52:45.439Z,77.63
2018-05-11T08:53:45.389Z,77.72
2018-05-11T08:54:45.390Z,78.87
2018-05-11T08:55:45.492Z,79.64
2018-05-11T08:56:45.331Z,80.59
2018-05-11T08:57:45.312Z,79.83
2018-05-11T08:58:45.304Z,80.35
2018-05-11T08:59:45.299Z,79.49
2018-05-11T09:00:45.262Z,77.86
2018-05-11T09:01:45.242Z,78.53
2018-05-11T09:02:45.228Z,78.76
2018-05-11T09:03:45.212Z,77.80
2018-05-11T09:04:45.196Z,78.28
2018-05-11T09:05:45.244Z,78.19
2018-05-11T09:06:45.159Z,78.38
2018-05-11T09:07:45.145Z,75.51
2018-05-11T09:08:45.163Z,73.79
2018-05-11T09:09:45.109Z,75.60
2018-05-11T09:10:45.097Z,76.08
2018-05-11T09:11:45.077Z,75.22
2018-05-11T09:12:45.060Z,74.55
2018-05-11T09:13:45.042Z,74.74
2018-05-11T09:14:45.029Z,75.02
2018-05-11T09:15:45.010Z,76.84
2018-05-11T09:16:44.993Z,75.98
2018-05-11T09:17:45.069Z,75.98
2018-05-11T09:18:44.957Z,75.60
2018-05-11T09:19:44.942Z,75.60
2018-05-11T09:20:44.922Z,77.08
2018-05-11T09:21:44.911Z,76.98
2018-05-11T09:22:44.892Z,77.08
2018-05-11T09:23:44.881Z,76.12
2018-05-11T09:24:44.861Z,75.83
2018-05-11T09:25:44.850Z,75.35
2018-05-11T09:26:44.828Z,74.11
2018-05-11T09:27:44.817Z,74.11
2018-05-11T09:28:44.793Z,74.49
2018-05-11T09:29:44.810Z,73.44
2018-05-11T09:30:44.811Z,73.82
2018-05-11T09:31:44.779Z,74.01
2018-05-11T09:32:44.759Z,72.77
2018-05-11T09:33:44.730Z,72.77
2018-05-11T09:34:44.703Z,72.48
2018-05-11T09:35:44.682Z,74.20
2018-05-11T09:36:44.669Z,74.97
2018-05-11T09:37:44.643Z,72.77
2018-05-11T09:38:44.634Z,72.77
2018-05-11T09:39:44.685Z,73.91
2018-05-11T09:40:45.284Z,73.91
2018-05-11T09:41:46.354Z,74.43
2018-05-11T09:42:44.587Z,74.87
2018-05-11T09:43:44.546Z,73.28
2018-05-11T09:44:44.531Z,71.62
2018-05-11T09:45:44.511Z,72.19
2018-05-11T09:46:44.504Z,72.67
2018-05-11T09:47:44.492Z,73.54
2018-05-11T09:48:44.462Z,73.72
2018-05-11T09:49:44.489Z,73.38
2018-05-11T09:50:44.429Z,73.76
2018-05-11T09:51:44.420Z,72.13
2018-05-11T09:52:44.395Z,71.46
2018-05-11T09:53:44.385Z,71.84
2018-05-11T09:54:44.363Z,72.45
2018-05-11T09:55:44.351Z,68.87
2018-05-11T09:56:44.335Z,68.21
2018-05-11T09:57:44.313Z,68.40
2018-05-11T09:58:44.299Z,67.54
2018-05-11T09:59:44.283Z,67.82
2018-05-11T10:00:44.275Z,68.40
2018-05-11T10:01:44.336Z,68.01
2018-05-11T10:02:44.235Z,66.19
2018-05-11T10:03:44.220Z,66.58
2018-05-11T10:04:44.208Z,66.86
2018-05-11T10:05:44.188Z,67.09
2018-05-11T10:06:44.184Z,66.03
2018-05-11T10:07:44.201Z,67.09
2018-05-11T10:08:44.143Z,68.33
2018-05-11T10:09:44.128Z,66.35
2018-05-11T10:10:44.157Z,66.74
2018-05-11T10:11:44.094Z,67.69
2018-05-11T10:12:44.077Z,67.12
2018-05-11T10:13:44.130Z,65.59
2018-05-11T10:14:44.048Z,65.43
2018-05-11T10:15:44.031Z,63.09
2018-05-11T10:16:44.065Z,65.62
2018-05-11T10:17:43.998Z,62.16
2018-05-11T10:18:44.032Z,62.07
2018-05-11T10:19:43.971Z,63.35
2018-05-11T10:20:44.041Z,61.81
2018-05-11T10:21:43.941Z,59.92
2018-05-11T10:22:43.937Z,59.83
2018-05-11T10:23:43.922Z,58.20
2018-05-11T10:24:43.922Z,57.84
2018-05-11T10:25:43.904Z,56.98
2018-05-11T10:26:43.878Z,55.56
2018-05-11T10:27:43.866Z,57.06
2018-05-11T10:28:43.911Z,54.87
2018-05-11T10:29:43.851Z,54.22
2018-05-11T10:30:43.839Z,54.66
2018-05-11T10:31:45.918Z,52.50
2018-05-11T10:32:43.812Z,50.81
2018-05-11T10:33:43.844Z,46.78
2018-05-11T10:34:43.797Z,47.99
2018-05-11T10:35:43.812Z,47.45
2018-05-11T10:36:43.780Z,44.76
2018-05-11T10:37:43.873Z,43.74
2018-05-11T10:38:44.991Z,40.56
2018-05-11T10:39:43.763Z,39.24
2018-05-11T10:40:43.751Z,38.09
2018-05-11T10:41:44.956Z,36.16
2018-05-11T10:42:43.738Z,37.78
2018-05-11T10:43:43.734Z,38.89
2018-05-11T10:44:43.728Z,38.83
2018-05-11T10:45:43.723Z,39.67
2018-05-11T10:46:43.721Z,41.85
2018-05-11T10:47:43.711Z,44.53
2018-05-11T10:48:43.766Z,46.83
2018-05-11T10:49:43.701Z,47.48
2018-05-11T10:50:43.699Z,47.36
2018-05-11T10:51:43.714Z,46.58
2018-05-11T10:52:43.684Z,44.22
2018-05-11T10:53:43.675Z,44.85
2018-05-11T10:54:43.673Z,46.86
2018-05-11T10:55:43.663Z,48.71
2018-05-11T10:56:43.661Z,48.21
2018-05-11T10:57:43.651Z,43.82
2018-05-11T10:58:43.687Z,42.72
2018-05-11T10:59:43.680Z,42.02
2018-05-11T11:00:43.694Z,39.53
2018-05-11T11:01:43.620Z,37.24
2018-05-11T11:02:43.613Z,35.42
2018-05-11T11:03:43.624Z,33.49
2018-05-11T11:04:43.694Z,32.34
2018-05-11T11:05:43.595Z,30.80
2018-05-11T11:06:43.588Z,31.30
2018-05-11T11:07:43.582Z,31.41
2018-05-11T11:08:43.584Z,28.77
2018-05-11T11:09:43.574Z,28.86
2018-05-11T11:10:43.568Z,29.85
2018-05-11T11:11:43.565Z,30.26
2018-05-11T11:12:43.567Z,28.51
2018-05-11T11:13:43.562Z,31.40
2018-05-11T11:14:43.557Z,33.88
2018-05-11T11:15:43.556Z,35.40
2018-05-11T11:16:43.552Z,35.94
2018-05-11T11:17:43.544Z,37.67
2018-05-11T11:18:43.541Z,38.81
2018-05-11T11:19:43.535Z,39.32
2018-05-11T11:20:43.532Z,38.89
2018-05-11T11:21:43.539Z,36.52
2018-05-11T11:22:43.525Z,33.64
2018-05-11T11:23:43.532Z,33.49
2018-05-11T11:24:43.516Z,32.06
2018-05-11T11:25:43.506Z,31.01
2018-05-11T11:26:43.508Z,29.57
2018-05-11T11:27:43.500Z,28.03
2018-05-11T11:28:43.498Z,27.75
2018-05-11T11:29:43.491Z,27.48
2018-05-11T11:30:43.488Z,25.73
2018-05-11T11:31:43.535Z,24.75
2018-05-11T11:32:43.486Z,24.19
2018-05-11T11:33:43.481Z,23.41
2018-05-11T11:34:43.503Z,23.81
2018-05-11T11:35:43.998Z,24.10
2018-05-11T11:36:43.471Z,24.11
2018-05-11T11:37:43.485Z,24.02
2018-05-11T11:38:43.469Z,23.33
2018-05-11T11:39:43.466Z,23.24
2018-05-11T11:40:43.466Z,22.63
2018-05-11T11:41:43.468Z,22.89
2018-05-11T11:42:43.469Z,22.91
2018-05-11T11:43:43.465Z,23.11
2018-05-11T11:44:43.473Z,23.30
2018-05-11T11:45:43.476Z,23.41
2018-05-11T11:46:43.460Z,23.32
2018-05-11T11:47:43.464Z,22.74
2018-05-11T11:48:43.460Z,22.74
2018-05-11T11:49:43.459Z,22.66
2018-05-11T11:50:43.458Z,21.97
2018-05-11T11:51:43.463Z,22.67
2018-05-11T11:52:43.460Z,22.56
2018-05-11T11:53:43.459Z,23.35
2018-05-11T11:54:43.463Z,22.19
2018-05-11T11:55:43.465Z,20.61
2018-05-11T11:56:43.470Z,21.98
2018-05-11T11:57:43.464Z,22.67
2018-05-11T11:58:43.463Z,22.67
2018-05-11T11:59:43.473Z,21.80
2018-05-11T12:00:43.469Z,21.70
2018-05-11T12:01:43.655Z,21.31
2018-05-11T12:02:43.525Z,21.02
2018-05-11T12:03:43.471Z,21.61
2018-05-11T12:04:43.512Z,21.59
2018-05-11T12:05:43.508Z,21.51
2018-05-11T12:06:44.185Z,22.10
2018-05-11T12:07:43.476Z,22.20
2018-05-11T12:08:43.584Z,21.81
2018-05-11T12:09:43.507Z,22.11
2018-05-11T12:10:43.553Z,21.23
2018-05-11T12:11:43.480Z,21.72
2018-05-11T12:12:43.494Z,21.33
2018-05-11T12:13:43.482Z,21.33
2018-05-11T12:14:43.485Z,21.53
2018-05-11T12:15:43.487Z,21.43
2018-05-11T12:16:43.526Z,20.15
2018-05-11T12:17:43.491Z,18.77
2018-05-11T12:18:43.493Z,19.27
2018-05-11T12:19:43.496Z,20.45
2018-05-11T12:20:43.497Z,21.12
2018-05-11T12:21:43.500Z,21.80
2018-05-11T12:22:43.512Z,21.98
2018-05-11T12:23:43.507Z,20.72
2018-05-11T12:24:43.521Z,20.53
2018-05-11T12:25:43.507Z,20.54
2018-05-11T12:26:43.530Z,20.34
2018-05-11T12:27:43.510Z,20.46
2018-05-11T12:28:43.515Z,19.57
2018-05-11T12:29:43.515Z,19.38
2018-05-11T12:30:43.521Z,18.88
2018-05-11T12:31:43.532Z,19.18
2018-05-11T12:32:43.522Z,19.87
2018-05-11T12:33:43.529Z,19.96
2018-05-11T12:34:43.528Z,20.17
2018-05-11T12:35:43.527Z,20.75
2018-05-11T12:36:44.032Z,20.17
2018-05-11T12:37:43.544Z,19.48
2018-05-11T12:38:43.534Z,19.18
2018-05-11T12:39:43.538Z,18.79
2018-05-11T12:40:43.540Z,19.08
2018-05-11T12:41:43.551Z,19.38
2018-05-11T12:42:43.544Z,19.76
2018-05-11T12:43:43.547Z,19.57
2018-05-11T12:44:48.583Z,19.66
2018-05-11T12:45:43.554Z,20.14
2018-05-11T12:46:43.584Z,21.58
2018-05-11T12:47:43.560Z,21.09
2018-05-11T12:48:43.615Z,22.05
2018-05-11T12:49:43.563Z,21.14
2018-05-11T12:50:43.567Z,21.94
2018-05-11T12:51:43.620Z,23.02
2018-05-11T12:52:43.646Z,22.66